createdAt,value
2022-11-13T00:03:33.272Z,100451.78
2022-11-13T00:06:02.045Z,100461.00
2022-11-13T00:08:29.072Z,100457.94
2022-11-13T00:11:18.560Z,100450.38
2022-11-13T00:13:46.207Z,100446.63
2022-11-13T00:16:16.105Z,100455.03
2022-11-13T00:18:43.667Z,100448.22
2022-11-13T00:21:18.831Z,100444.13
2022-11-13T00:23:46.032Z,100441.47
2022-11-13T00:26:21.798Z,100439.34
2022-11-13T00:28:56.103Z,100438.28
2022-11-13T00:31:23.031Z,100423.25
2022-11-13T00:36:37.012Z,100435.50
2022-11-13T00:39:04.221Z,100430.41
2022-11-13T00:41:31.012Z,100433.41
2022-11-13T00:43:57.735Z,100442.47
2022-11-13T00:46:24.456Z,100415.38
2022-11-13T00:48:51.194Z,100405.38
2022-11-13T00:51:19.819Z,100385.63
2022-11-13T00:53:46.722Z,100429.53
2022-11-13T00:56:13.742Z,100420.88
2022-11-13T00:58:40.488Z,100428.25
2022-11-13T01:01:11.509Z,100428.22
2022-11-13T01:03:38.693Z,100428.50
2022-11-13T01:06:19.280Z,100428.44
2022-11-13T01:08:46.651Z,100412.72
2022-11-13T01:11:17.918Z,100420.06
2022-11-13T01:13:47.229Z,100417.84
2022-11-13T01:16:15.207Z,100401.88
2022-11-13T01:18:42.960Z,100402.72
2022-11-13T01:21:18.347Z,100381.94
2022-11-13T01:23:45.827Z,100398.03
2022-11-13T01:26:21.050Z,100388.28
2022-11-13T01:28:47.961Z,100384.78
2022-11-13T01:31:17.676Z,100388.09
2022-11-13T01:33:45.383Z,100394.09
2022-11-13T01:36:14.355Z,100375.50
2022-11-13T01:38:41.215Z,100381.47
2022-11-13T01:41:12.912Z,100388.63
2022-11-13T01:43:39.675Z,100368.88
2022-11-13T01:46:26.703Z,100376.69
2022-11-13T01:49:08.315Z,100379.28
2022-11-13T01:51:50.167Z,100394.25
2022-11-13T01:54:23.001Z,100398.56
2022-11-13T01:56:50.633Z,100327.03
2022-11-13T01:59:28.124Z,100366.53
2022-11-13T02:01:56.716Z,100389.63
2022-11-13T02:04:23.740Z,100384.09
2022-11-13T02:06:59.762Z,100372.66
2022-11-13T02:09:30.328Z,100358.84
2022-11-13T02:11:58.313Z,100363.72
2022-11-13T02:14:27.885Z,100345.03
2022-11-13T02:16:59.265Z,100361.13
2022-11-13T02:19:31.235Z,100365.00
2022-11-13T02:22:14.664Z,100348.47
2022-11-13T02:24:45.745Z,100366.69
2022-11-13T02:27:39.934Z,100310.34
2022-11-13T02:30:16.405Z,100354.50
2022-11-13T02:32:51.494Z,100354.84
2022-11-13T02:35:33.812Z,100350.66
2022-11-13T02:38:03.028Z,100343.94
2022-11-13T02:40:30.444Z,100347.09
2022-11-13T02:42:57.248Z,100326.59
2022-11-13T02:45:24.026Z,100349.13
2022-11-13T02:47:51.021Z,100351.81
2022-11-13T02:50:18.545Z,100300.84
2022-11-13T02:52:45.261Z,100340.56
2022-11-13T02:55:11.958Z,100333.66
2022-11-13T02:57:38.656Z,100358.91
2022-11-13T03:00:12.257Z,100350.16
2022-11-13T03:02:40.582Z,100356.81
2022-11-13T03:05:12.543Z,100352.88
2022-11-13T03:07:40.138Z,100350.75
2022-11-13T03:10:07.581Z,100340.22
2022-11-13T03:12:34.395Z,100336.78
2022-11-13T03:15:01.385Z,100290.47
2022-11-13T03:17:28.073Z,100314.31
2022-11-13T03:19:54.791Z,100334.59
2022-11-13T03:22:21.694Z,100329.25
2022-11-13T03:24:48.442Z,100324.56
2022-11-13T03:27:15.165Z,100309.41
2022-11-13T03:29:41.863Z,100298.81
2022-11-13T03:32:08.595Z,100294.22
2022-11-13T03:34:35.303Z,100315.50
2022-11-13T03:37:02.036Z,100305.28
2022-11-13T03:39:28.772Z,100292.22
2022-11-13T03:41:55.512Z,100299.88
2022-11-13T03:44:22.382Z,100315.16
2022-11-13T03:46:49.050Z,100293.00
2022-11-13T03:49:15.733Z,100314.25
2022-11-13T03:51:42.476Z,100324.00
2022-11-13T03:54:09.240Z,100273.97
2022-11-13T03:56:35.996Z,100306.69
2022-11-13T03:59:02.691Z,100311.13
2022-11-13T04:01:29.493Z,100282.16
2022-11-13T04:03:56.234Z,100276.22
2022-11-13T04:06:22.991Z,100284.41
2022-11-13T04:08:49.712Z,100281.28
2022-11-13T04:11:16.466Z,100278.25
2022-11-13T04:13:43.257Z,100281.16
2022-11-13T04:16:09.993Z,100261.16
2022-11-13T04:18:36.701Z,100283.50
2022-11-13T04:21:05.400Z,100271.31
2022-11-13T04:23:32.168Z,100280.16
2022-11-13T04:25:59.447Z,100281.16
2022-11-13T04:28:26.484Z,100284.72
2022-11-13T04:30:54.976Z,100255.34
2022-11-13T04:33:22.120Z,100270.84
2022-11-13T04:35:49.320Z,100271.56
2022-11-13T04:38:16.112Z,100268.28
2022-11-13T04:40:43.163Z,100266.13
2022-11-13T04:43:09.981Z,100249.13
2022-11-13T04:45:37.611Z,100242.50
2022-11-13T04:48:04.625Z,100228.31
2022-11-13T04:50:31.661Z,100255.50
2022-11-13T04:52:58.442Z,100250.38
2022-11-13T04:55:25.260Z,100235.56
2022-11-13T04:57:55.607Z,100213.00
2022-11-13T05:00:22.786Z,100216.38
2022-11-13T05:02:49.744Z,100217.59
2022-11-13T05:05:16.780Z,100224.25
2022-11-13T05:07:43.566Z,100224.31
2022-11-13T05:10:10.302Z,100219.81
2022-11-13T05:12:36.991Z,100217.72
2022-11-13T05:15:04.473Z,100214.72
2022-11-13T05:17:31.216Z,100217.72
2022-11-13T05:19:57.994Z,100207.19
2022-11-13T05:22:24.725Z,100232.72
2022-11-13T05:24:51.449Z,100229.41
2022-11-13T05:27:18.148Z,100214.94
2022-11-13T05:29:45.251Z,100231.94
2022-11-13T05:32:12.132Z,100216.97
2022-11-13T05:34:38.905Z,100232.25
2022-11-13T05:37:05.655Z,100183.84
2022-11-13T05:39:32.322Z,100220.38
2022-11-13T05:41:59.056Z,100210.16
2022-11-13T05:44:25.841Z,100209.91
2022-11-13T05:46:52.673Z,100223.00
2022-11-13T05:49:19.517Z,100202.56
2022-11-13T05:51:46.358Z,100194.97
2022-11-13T05:54:13.205Z,100193.38
2022-11-13T05:56:40.661Z,100176.25
2022-11-13T05:59:08.055Z,100168.53
2022-11-13T06:01:37.729Z,100190.72
2022-11-13T06:04:05.592Z,100209.72
2022-11-13T06:06:33.322Z,100200.13
2022-11-13T06:09:03.693Z,100200.44
2022-11-13T06:11:31.719Z,100210.00
2022-11-13T06:13:59.743Z,100205.44
2022-11-13T06:16:30.212Z,100211.72
2022-11-13T06:18:59.198Z,100201.28
2022-11-13T06:21:29.720Z,100203.00
2022-11-13T06:24:00.479Z,100185.09
2022-11-13T06:26:30.669Z,100210.75
2022-11-13T06:28:57.756Z,100220.03
2022-11-13T06:31:29.946Z,100185.97
2022-11-13T06:33:59.255Z,100213.72
2022-11-13T06:36:31.812Z,100177.38
2022-11-13T06:38:59.291Z,100181.59
2022-11-13T06:41:29.644Z,100183.59
2022-11-13T06:44:02.259Z,100217.75
2022-11-13T06:46:30.903Z,100215.94
2022-11-13T06:48:58.004Z,100214.91
2022-11-13T06:51:27.466Z,100208.22
2022-11-13T06:53:54.589Z,100221.00
2022-11-13T06:56:21.883Z,100216.56
2022-11-13T06:58:49.110Z,100212.66
2022-11-13T07:01:18.999Z,100224.31
2022-11-13T07:03:45.982Z,100226.25
2022-11-13T07:06:18.325Z,100222.59
2022-11-13T07:08:45.778Z,100226.19
2022-11-13T07:11:15.874Z,100224.47
2022-11-13T07:13:42.996Z,100229.03
2022-11-13T07:16:16.918Z,100229.81
2022-11-13T07:18:53.898Z,100223.91
2022-11-13T07:21:21.989Z,100234.06
2022-11-13T07:23:50.190Z,100233.31
2022-11-13T07:26:17.094Z,100223.19
2022-11-13T07:28:44.042Z,100216.75
2022-11-13T07:31:12.805Z,100211.66
2022-11-13T07:33:39.576Z,100208.97
2022-11-13T07:36:06.966Z,100216.25
2022-11-13T07:38:33.745Z,100198.28
2022-11-13T07:41:01.065Z,100176.94
2022-11-13T07:43:28.266Z,100230.09
2022-11-13T07:45:57.809Z,100219.09
2022-11-13T07:48:24.893Z,100215.22
2022-11-13T07:50:51.662Z,100199.41
2022-11-13T07:53:19.676Z,100202.16
2022-11-13T07:55:47.020Z,100220.13
2022-11-13T07:58:14.091Z,100231.84
2022-11-13T08:00:40.917Z,100226.72
2022-11-13T08:03:09.670Z,100232.06
2022-11-13T08:05:36.874Z,100214.81
2022-11-13T08:08:04.039Z,100210.84
2022-11-13T08:10:31.232Z,100219.81
2022-11-13T08:13:08.058Z,100201.34
2022-11-13T08:15:35.294Z,100217.13
2022-11-13T08:18:04.142Z,100225.31
2022-11-13T08:20:32.001Z,100222.28
2022-11-13T08:23:00.688Z,100226.47
2022-11-13T08:25:28.961Z,100186.03
2022-11-13T08:27:56.040Z,100219.25
2022-11-13T08:30:24.976Z,100216.78
2022-11-13T08:32:52.320Z,100202.59
2022-11-13T08:35:20.774Z,100210.19
2022-11-13T08:37:49.935Z,100192.22
2022-11-13T08:40:16.744Z,100211.41
2022-11-13T08:42:43.483Z,100195.63
2022-11-13T08:45:10.703Z,100181.16
2022-11-13T08:47:37.780Z,100186.03
2022-11-13T08:50:06.400Z,100207.03
2022-11-13T08:52:33.178Z,100211.69
2022-11-13T08:54:59.941Z,100203.78
2022-11-13T08:57:26.759Z,100206.47
2022-11-13T08:59:53.533Z,100220.03
2022-11-13T09:02:20.308Z,100217.59
2022-11-13T09:04:47.347Z,100221.06
2022-11-13T09:07:14.318Z,100205.91
2022-11-13T09:09:41.125Z,100233.22
2022-11-13T09:12:08.140Z,100214.75
2022-11-13T09:14:36.115Z,100237.88
2022-11-13T09:17:03.214Z,100220.00
2022-11-13T09:19:29.989Z,100218.81
2022-11-13T09:21:56.890Z,100229.66
2022-11-13T09:24:23.649Z,100221.00
2022-11-13T09:26:50.676Z,100233.31
2022-11-13T09:29:20.050Z,100223.44
2022-11-13T09:31:46.987Z,100218.94
2022-11-13T09:34:16.895Z,100187.81
2022-11-13T09:36:43.632Z,100192.47
2022-11-13T09:39:10.389Z,100205.09
2022-11-13T09:41:48.221Z,100204.69
2022-11-13T09:44:21.182Z,100186.34
2022-11-13T09:46:54.307Z,100198.03
2022-11-13T09:49:34.761Z,100207.53
2022-11-13T09:52:13.646Z,100195.66
2022-11-13T09:54:40.455Z,100191.41
2022-11-13T09:57:26.459Z,100183.47
2022-11-13T10:00:05.708Z,100181.78
2022-11-13T10:02:46.432Z,100184.03
2022-11-13T10:05:13.111Z,100186.28
2022-11-13T10:08:06.234Z,100172.22
2022-11-13T10:10:53.698Z,100170.19
2022-11-13T10:13:27.467Z,100170.69
2022-11-13T10:16:09.583Z,100157.50
2022-11-13T10:18:38.517Z,100157.75
2022-11-13T10:21:31.870Z,100147.47
2022-11-13T10:24:04.383Z,100157.63
2022-11-13T10:26:33.028Z,100154.66
2022-11-13T10:29:06.325Z,100144.69
2022-11-13T10:31:48.989Z,100135.63
2022-11-13T10:34:16.993Z,100139.09
2022-11-13T10:37:14.161Z,100130.94
2022-11-13T10:39:47.277Z,100123.66
2022-11-13T10:42:28.257Z,100112.00
2022-11-13T10:45:00.492Z,100122.25
2022-11-13T10:48:02.629Z,100123.84
2022-11-13T10:50:19.253Z,100122.13
2022-11-13T10:52:48.401Z,100110.94
2022-11-13T10:55:30.032Z,100108.78
2022-11-13T10:57:59.255Z,100106.38
2022-11-13T11:00:32.368Z,100105.75
2022-11-13T11:02:59.164Z,100086.03
2022-11-13T11:05:27.254Z,100094.81
2022-11-13T11:07:56.347Z,100067.63
2022-11-13T11:10:34.132Z,100085.41
2022-11-13T11:13:11.167Z,100073.47
2022-11-13T11:15:59.568Z,100062.75
2022-11-13T11:18:47.907Z,100061.06
2022-11-13T11:21:21.219Z,100064.81
2022-11-13T11:24:00.284Z,100064.56
2022-11-13T11:26:56.825Z,100058.25
2022-11-13T11:29:37.727Z,100047.88
2022-11-13T11:32:23.571Z,100045.47
2022-11-13T11:35:00.408Z,100038.38
2022-11-13T11:37:47.290Z,100017.91
2022-11-13T11:40:27.133Z,100040.69
2022-11-13T11:43:36.369Z,100037.38
2022-11-13T11:46:03.418Z,99994.22
2022-11-13T11:48:32.101Z,100006.41
2022-11-13T11:51:24.333Z,100017.13
2022-11-13T11:54:20.070Z,100015.00
2022-11-13T11:56:57.621Z,100018.53
2022-11-13T12:00:10.196Z,100016.22
2022-11-13T12:03:11.908Z,100005.84
2022-11-13T12:06:28.061Z,100002.53
2022-11-13T12:08:54.963Z,99994.28
2022-11-13T12:11:36.857Z,99977.34
2022-11-13T12:14:38.804Z,99993.16
2022-11-13T12:17:17.558Z,99998.59
2022-11-13T12:20:00.943Z,99986.34
2022-11-13T12:22:43.798Z,99972.47
2022-11-13T12:25:16.518Z,99992.31
2022-11-13T12:27:48.688Z,99969.31
2022-11-13T12:30:19.977Z,99962.09
2022-11-13T12:32:52.300Z,99962.88
2022-11-13T12:35:25.344Z,99966.88
2022-11-13T12:38:02.674Z,99949.34
2022-11-13T12:40:34.385Z,99944.41
2022-11-13T12:43:35.593Z,99942.13
2022-11-13T12:46:08.553Z,99929.56
2022-11-13T12:48:36.689Z,99932.09
2022-11-13T12:51:09.577Z,99941.59
2022-11-13T12:53:51.056Z,99933.31
2022-11-13T12:56:20.604Z,99942.81
2022-11-13T12:59:23.582Z,99942.69
2022-11-13T13:01:48.283Z,99934.09
2022-11-13T13:04:45.840Z,99924.03
2022-11-13T13:07:13.366Z,99929.16
2022-11-13T13:10:02.006Z,99926.19
2022-11-13T13:12:31.422Z,99922.81
2022-11-13T13:15:13.233Z,99915.00
2022-11-13T13:17:41.435Z,99917.72
2022-11-13T13:20:11.127Z,99918.84
2022-11-13T13:22:37.960Z,99900.44
2022-11-13T13:25:28.574Z,99906.13
2022-11-13T13:28:21.501Z,99902.13
2022-11-13T13:31:07.799Z,99901.28
2022-11-13T13:33:37.685Z,99896.91
2022-11-13T13:36:10.400Z,99889.94
2022-11-13T13:39:00.493Z,99885.28
2022-11-13T13:41:42.269Z,99882.31
2022-11-13T13:44:18.057Z,99875.78
2022-11-13T13:46:45.061Z,99876.06
2022-11-13T13:49:16.277Z,99882.00
2022-11-13T13:51:46.899Z,99879.00
2022-11-13T13:54:20.013Z,99870.63
2022-11-13T13:56:47.298Z,99863.66
2022-11-13T13:59:22.225Z,99866.63
2022-11-13T14:01:58.554Z,99872.44
2022-11-13T14:04:28.669Z,99866.22
2022-11-13T14:06:56.879Z,99874.28
2022-11-13T14:09:28.699Z,99854.44
2022-11-13T14:12:08.948Z,99866.47
2022-11-13T14:14:40.062Z,99860.25
2022-11-13T14:17:08.985Z,99862.22
2022-11-13T14:19:35.797Z,99852.91
2022-11-13T14:22:05.077Z,99852.59
2022-11-13T14:24:54.214Z,99834.88
2022-11-13T14:27:25.683Z,99791.34
2022-11-13T14:29:55.444Z,99853.19
2022-11-13T14:32:26.809Z,99849.13
2022-11-13T14:34:59.175Z,99850.19
2022-11-13T14:37:36.582Z,99850.03
2022-11-13T14:40:26.615Z,99845.06
2022-11-13T14:42:58.116Z,99852.44
2022-11-13T14:45:32.881Z,99848.66
2022-11-13T14:48:02.460Z,99847.16
2022-11-13T14:50:35.205Z,99851.28
2022-11-13T14:53:05.537Z,99842.63
2022-11-13T14:55:54.186Z,99839.16
2022-11-13T14:58:37.482Z,99849.63
2022-11-13T15:01:21.012Z,99852.59
2022-11-13T15:03:49.961Z,99849.19
2022-11-13T15:06:23.750Z,99847.06
2022-11-13T15:08:58.502Z,99844.66
2022-11-13T15:11:27.141Z,99856.50
2022-11-13T15:13:54.547Z,99839.91
2022-11-13T15:16:29.184Z,99845.53
2022-11-13T15:19:03.851Z,99854.78
2022-11-13T15:21:32.502Z,99851.41
2022-11-13T15:24:02.773Z,99831.69
2022-11-13T15:26:30.087Z,99799.50
2022-11-13T15:28:57.137Z,99856.00
2022-11-13T15:31:33.205Z,99845.41
2022-11-13T15:34:00.046Z,99835.69
2022-11-13T15:36:27.170Z,99852.31
2022-11-13T15:38:54.411Z,99851.53
2022-11-13T15:41:26.005Z,99854.00
2022-11-13T15:43:55.733Z,99851.22
2022-11-13T15:46:25.405Z,99828.00
2022-11-13T15:48:53.267Z,99842.25
2022-11-13T15:51:43.520Z,99840.19
2022-11-13T15:54:21.134Z,99846.13
2022-11-13T15:56:48.057Z,99823.38
2022-11-13T15:59:15.252Z,99854.06
2022-11-13T16:01:42.161Z,99848.97
2022-11-13T16:04:10.997Z,99844.44
2022-11-13T16:06:38.496Z,99845.03
2022-11-13T16:09:06.636Z,99814.72
2022-11-13T16:11:35.440Z,99854.41
2022-11-13T16:14:02.788Z,99840.53
2022-11-13T16:16:39.269Z,99831.97
2022-11-13T16:19:15.602Z,99862.22
2022-11-13T16:21:42.585Z,99859.63
2022-11-13T16:24:12.333Z,99858.66
2022-11-13T16:26:43.066Z,99860.94
2022-11-13T16:29:20.445Z,99833.59
2022-11-13T16:31:48.378Z,99840.22
2022-11-13T16:34:15.132Z,99857.59
2022-11-13T16:36:42.875Z,99855.66
2022-11-13T16:39:15.570Z,99842.91
2022-11-13T16:41:42.915Z,99864.81
2022-11-13T16:44:10.406Z,99864.50
2022-11-13T16:46:42.179Z,99850.00
2022-11-13T16:49:17.199Z,99848.97
2022-11-13T16:51:46.661Z,99850.28
2022-11-13T16:54:14.458Z,99845.28
2022-11-13T16:56:45.720Z,99815.50
2022-11-13T16:59:12.954Z,99848.78
2022-11-13T17:01:40.641Z,99828.41
2022-11-13T17:04:08.158Z,99849.44
2022-11-13T17:06:36.679Z,99851.69
2022-11-13T17:09:05.090Z,99851.16
2022-11-13T17:11:35.429Z,99857.78
2022-11-13T17:14:03.577Z,99854.47
2022-11-13T17:16:32.182Z,99851.16
2022-11-13T17:19:00.472Z,99860.78
2022-11-13T17:21:29.593Z,99852.00
2022-11-13T17:23:59.115Z,99857.03
2022-11-13T17:26:27.317Z,99849.91
2022-11-13T17:28:55.137Z,99852.47
2022-11-13T17:31:22.226Z,99860.31
2022-11-13T17:33:54.846Z,99850.53
2022-11-13T17:36:25.680Z,99837.69
2022-11-13T17:38:53.094Z,99858.94
2022-11-13T17:41:20.364Z,99835.59
2022-11-13T17:43:48.047Z,99857.44
2022-11-13T17:46:17.854Z,99807.19
2022-11-13T17:48:46.124Z,99842.91
2022-11-13T17:51:15.883Z,99844.88
2022-11-13T17:53:44.783Z,99815.16
2022-11-13T17:56:14.341Z,99852.88
2022-11-13T17:58:44.941Z,99864.47
2022-11-13T18:01:15.241Z,99835.34
2022-11-13T18:03:43.315Z,99848.38
2022-11-13T18:06:15.571Z,99861.28
2022-11-13T18:08:46.405Z,99875.63
2022-11-13T18:11:17.875Z,99877.09
2022-11-13T18:13:46.790Z,99869.88
2022-11-13T18:16:19.541Z,99886.31
2022-11-13T18:18:54.079Z,99882.38
2022-11-13T18:21:30.796Z,99893.53
2022-11-13T18:24:07.895Z,99893.34
2022-11-13T18:26:35.560Z,99863.69
2022-11-13T18:29:03.876Z,99896.88
2022-11-13T18:31:31.467Z,99902.53
2022-11-13T18:34:00.582Z,99894.75
2022-11-13T18:36:28.391Z,99869.44
2022-11-13T18:38:56.708Z,99887.50
2022-11-13T18:41:24.762Z,99896.25
2022-11-13T18:43:53.145Z,99893.00
2022-11-13T18:46:24.113Z,99884.56
2022-11-13T18:48:51.662Z,99890.00
2022-11-13T18:51:21.893Z,99881.13
2022-11-13T18:53:51.785Z,99879.13
2022-11-13T18:56:22.497Z,99866.28
2022-11-13T18:58:53.589Z,99857.97
2022-11-13T19:01:31.038Z,99861.22
2022-11-13T19:04:23.557Z,99857.47
2022-11-13T19:06:56.651Z,99861.19
2022-11-13T19:09:24.220Z,99842.41
2022-11-13T19:11:52.067Z,99851.69
2022-11-13T19:14:20.059Z,99859.50
2022-11-13T19:16:48.166Z,99857.13
2022-11-13T19:19:19.448Z,99830.19
2022-11-13T19:21:47.974Z,99847.84
2022-11-13T19:24:16.065Z,99810.38
2022-11-13T19:26:44.607Z,99852.97
2022-11-13T19:29:12.125Z,99857.59
2022-11-13T19:31:40.390Z,99855.75
2022-11-13T19:34:09.047Z,99867.19
2022-11-13T19:36:37.011Z,99862.19
2022-11-13T19:39:05.181Z,99855.38
2022-11-13T19:41:33.434Z,99859.38
2022-11-13T19:44:01.148Z,99858.84
2022-11-13T19:46:32.501Z,99875.50
2022-11-13T19:49:00.223Z,99862.28
2022-11-13T19:51:27.902Z,99868.69
2022-11-13T19:53:57.876Z,99872.06
2022-11-13T19:56:27.963Z,99870.91
2022-11-13T19:58:56.045Z,99872.06
2022-11-13T20:01:28.446Z,99856.38
2022-11-13T20:03:57.867Z,99874.53
2022-11-13T20:06:27.032Z,99870.56
2022-11-13T20:08:57.289Z,99877.31
2022-11-13T20:11:24.840Z,99843.28
2022-11-13T20:13:52.637Z,99870.16
2022-11-13T20:16:22.625Z,99875.81
2022-11-13T20:18:51.162Z,99875.72
2022-11-13T20:21:26.709Z,99872.63
2022-11-13T20:23:57.390Z,99866.63
2022-11-13T20:26:25.955Z,99860.53
2022-11-13T20:28:53.484Z,99861.84
2022-11-13T20:31:24.121Z,99851.53
2022-11-13T20:33:54.263Z,99854.06
2022-11-13T20:36:22.060Z,99851.31
2022-11-13T20:38:52.575Z,99841.75
2022-11-13T20:41:24.483Z,99851.50
2022-11-13T20:43:53.017Z,99835.94
2022-11-13T20:46:21.605Z,99864.81
2022-11-13T20:48:50.081Z,99862.41
2022-11-13T20:51:20.978Z,99861.91
2022-11-13T20:53:49.328Z,99837.53
2022-11-13T20:56:18.014Z,99855.22
2022-11-13T20:58:45.822Z,99850.28
2022-11-13T21:01:18.912Z,99852.75
2022-11-13T21:03:46.733Z,99855.13
2022-11-13T21:06:22.544Z,99855.53
2022-11-13T21:08:50.419Z,99850.41
2022-11-13T21:11:22.153Z,99852.59
2022-11-13T21:13:51.767Z,99822.00
2022-11-13T21:16:19.416Z,99839.16
2022-11-13T21:18:46.711Z,99841.91
2022-11-13T21:21:16.805Z,99830.69
2022-11-13T21:23:43.816Z,99830.47
2022-11-13T21:26:11.183Z,99816.13
2022-11-13T21:28:38.049Z,99819.78
2022-11-13T21:31:15.072Z,99809.56
2022-11-13T21:33:43.341Z,99821.72
2022-11-13T21:36:16.700Z,99814.25
2022-11-13T21:38:43.560Z,99789.38
2022-11-13T21:41:21.891Z,99818.72
2022-11-13T21:44:08.557Z,99809.09
2022-11-13T21:46:37.574Z,99806.53
2022-11-13T21:49:07.001Z,99784.34
2022-11-13T21:51:36.821Z,99806.00
2022-11-13T21:54:03.878Z,99806.75
2022-11-13T21:56:33.123Z,99759.97
2022-11-13T21:58:59.861Z,99821.94
2022-11-13T22:01:27.340Z,99806.44
2022-11-13T22:03:54.917Z,99825.59
2022-11-13T22:06:32.663Z,99825.41
2022-11-13T22:09:02.147Z,99837.97
2022-11-13T22:11:31.774Z,99834.28
2022-11-13T22:13:59.382Z,99832.13
2022-11-13T22:16:28.364Z,99845.13
2022-11-13T22:18:56.853Z,99845.88
2022-11-13T22:21:25.584Z,99839.09
2022-11-13T22:23:52.742Z,99837.34
2022-11-13T22:26:20.913Z,99845.88
2022-11-13T22:28:48.592Z,99843.41
2022-11-13T22:31:17.975Z,99846.09
2022-11-13T22:33:48.306Z,99835.56
2022-11-13T22:36:20.506Z,99850.28
2022-11-13T22:38:48.044Z,99838.88
2022-11-13T22:41:22.597Z,99837.53
2022-11-13T22:43:52.642Z,99832.88
2022-11-13T22:46:22.731Z,99831.47
2022-11-13T22:48:49.932Z,99824.97
2022-11-13T22:51:19.384Z,99822.50
2022-11-13T22:53:53.432Z,99823.56
2022-11-13T22:56:21.510Z,99803.50
2022-11-13T22:58:48.425Z,99796.00
2022-11-13T23:01:16.922Z,99799.00
2022-11-13T23:03:46.585Z,99790.06
2022-11-13T23:06:16.213Z,99792.47
2022-11-13T23:08:43.313Z,99766.59
2022-11-13T23:11:12.617Z,99759.81
2022-11-13T23:13:41.766Z,99773.00
2022-11-13T23:16:08.926Z,99774.97
2022-11-13T23:18:35.635Z,99780.03
2022-11-13T23:21:02.531Z,99769.59
2022-11-13T23:23:29.281Z,99779.41
2022-11-13T23:25:56.270Z,99779.03
2022-11-13T23:28:23.030Z,99771.19
2022-11-13T23:30:49.765Z,99773.31
2022-11-13T23:33:16.527Z,99786.59
2022-11-13T23:35:43.293Z,99733.91
2022-11-13T23:38:10.102Z,99773.22
2022-11-13T23:40:37.122Z,99791.19
2022-11-13T23:43:04.331Z,99788.72
2022-11-13T23:45:31.119Z,99786.91
2022-11-13T23:47:58.062Z,99731.78
2022-11-13T23:50:24.823Z,99782.19
2022-11-13T23:52:51.712Z,99780.28
2022-11-13T23:55:18.896Z,99775.25
2022-11-13T23:57:45.651Z,99767.69
